sensor_id;sensor_type;location;lat;lon;timestamp;temperature;humidity
578;DHT22;275;48.492;9.214;2023-09-19T00:01:36;20.50;45.00
578;DHT22;275;48.492;9.214;2023-09-19T00:04:04;20.30;44.20
578;DHT22;275;48.492;9.214;2023-09-19T00:06:35;20.20;44.90
578;DHT22;275;48.492;9.214;2023-09-19T00:09:02;20.20;44.60
578;DHT22;275;48.492;9.214;2023-09-19T00:11:29;20.10;44.10
578;DHT22;275;48.492;9.214;2023-09-19T00:13:56;19.80;44.10
578;DHT22;275;48.492;9.214;2023-09-19T00:16:25;19.50;46.10
578;DHT22;275;48.492;9.214;2023-09-19T00:18:52;19.70;45.60
578;DHT22;275;48.492;9.214;2023-09-19T00:21:20;20.00;44.30
578;DHT22;275;48.492;9.214;2023-09-19T00:23:47;20.10;43.60
578;DHT22;275;48.492;9.214;2023-09-19T00:26:14;19.80;44.10
578;DHT22;275;48.492;9.214;2023-09-19T00:28:43;19.90;44.30
578;DHT22;275;48.492;9.214;2023-09-19T00:31:10;19.30;46.10
578;DHT22;275;48.492;9.214;2023-09-19T00:33:37;19.10;46.70
578;DHT22;275;48.492;9.214;2023-09-19T00:36:04;19.40;46.10
578;DHT22;275;48.492;9.214;2023-09-19T00:38:32;19.60;45.50
578;DHT22;275;48.492;9.214;2023-09-19T00:40:59;19.90;44.70
578;DHT22;275;48.492;9.214;2023-09-19T00:43:26;20.20;44.30
578;DHT22;275;48.492;9.214;2023-09-19T00:45:55;20.60;43.20
578;DHT22;275;48.492;9.214;2023-09-19T00:48:23;20.90;41.50
578;DHT22;275;48.492;9.214;2023-09-19T00:50:54;21.20;40.10
578;DHT22;275;48.492;9.214;2023-09-19T00:53:23;20.90;41.30
578;DHT22;275;48.492;9.214;2023-09-19T00:55:52;20.80;41.30
578;DHT22;275;48.492;9.214;2023-09-19T00:58:19;21.00;40.70
578;DHT22;275;48.492;9.214;2023-09-19T01:00:48;21.00;40.50
578;DHT22;275;48.492;9.214;2023-09-19T01:03:15;21.20;39.50
578;DHT22;275;48.492;9.214;2023-09-19T01:05:42;20.80;40.80
578;DHT22;275;48.492;9.214;2023-09-19T01:08:09;21.00;40.70
578;DHT22;275;48.492;9.214;2023-09-19T01:10:41;20.90;40.50
578;DHT22;275;48.492;9.214;2023-09-19T01:13:18;20.90;40.70
578;DHT22;275;48.492;9.214;2023-09-19T01:15:54;20.60;41.20
578;DHT22;275;48.492;9.214;2023-09-19T01:18:30;20.50;42.10
578;DHT22;275;48.492;9.214;2023-09-19T01:21:07;20.60;41.90
578;DHT22;275;48.492;9.214;2023-09-19T01:23:50;21.00;41.00
578;DHT22;275;48.492;9.214;2023-09-19T01:26:44;21.00;40.80
578;DHT22;275;48.492;9.214;2023-09-19T01:29:26;21.10;40.10
578;DHT22;275;48.492;9.214;2023-09-19T01:32:04;21.20;39.80
578;DHT22;275;48.492;9.214;2023-09-19T01:34:44;21.30;38.80
578;DHT22;275;48.492;9.214;2023-09-19T01:37:12;21.40;38.60
578;DHT22;275;48.492;9.214;2023-09-19T01:39:39;21.40;38.80
578;DHT22;275;48.492;9.214;2023-09-19T01:42:11;21.30;37.30
578;DHT22;275;48.492;9.214;2023-09-19T01:44:50;20.80;39.50
578;DHT22;275;48.492;9.214;2023-09-19T01:47:26;20.60;39.80
578;DHT22;275;48.492;9.214;2023-09-19T01:49:59;20.60;40.60
578;DHT22;275;48.492;9.214;2023-09-19T01:52:31;20.10;41.90
578;DHT22;275;48.492;9.214;2023-09-19T01:55:06;20.00;43.50
578;DHT22;275;48.492;9.214;2023-09-19T01:57:40;19.60;44.20
578;DHT22;275;48.492;9.214;2023-09-19T02:00:10;19.50;45.30
578;DHT22;275;48.492;9.214;2023-09-19T02:02:42;19.90;44.30
578;DHT22;275;48.492;9.214;2023-09-19T02:05:10;20.20;43.30
578;DHT22;275;48.492;9.214;2023-09-19T02:07:38;20.20;43.50
578;DHT22;275;48.492;9.214;2023-09-19T02:10:06;20.40;42.70
578;DHT22;275;48.492;9.214;2023-09-19T02:12:35;20.40;42.70
578;DHT22;275;48.492;9.214;2023-09-19T02:15:04;20.30;43.50
578;DHT22;275;48.492;9.214;2023-09-19T02:17:32;20.30;43.30
578;DHT22;275;48.492;9.214;2023-09-19T02:20:00;20.50;42.70
578;DHT22;275;48.492;9.214;2023-09-19T02:22:27;20.70;42.10
578;DHT22;275;48.492;9.214;2023-09-19T02:24:55;20.60;42.00
578;DHT22;275;48.492;9.214;2023-09-19T02:27:24;20.40;43.00
578;DHT22;275;48.492;9.214;2023-09-19T02:29:51;20.40;43.80
578;DHT22;275;48.492;9.214;2023-09-19T02:32:17;20.80;42.20
578;DHT22;275;48.492;9.214;2023-09-19T02:34:44;20.80;41.50
578;DHT22;275;48.492;9.214;2023-09-19T02:37:13;20.90;41.50
578;DHT22;275;48.492;9.214;2023-09-19T02:39:41;20.60;42.10
578;DHT22;275;48.492;9.214;2023-09-19T02:42:08;20.40;42.80
578;DHT22;275;48.492;9.214;2023-09-19T02:44:35;20.30;43.70
578;DHT22;275;48.492;9.214;2023-09-19T02:47:03;20.40;43.30
578;DHT22;275;48.492;9.214;2023-09-19T02:49:30;20.20;44.30
578;DHT22;275;48.492;9.214;2023-09-19T02:51:57;19.90;45.20
578;DHT22;275;48.492;9.214;2023-09-19T02:54:26;20.10;44.70
578;DHT22;275;48.492;9.214;2023-09-19T02:56:53;20.30;43.60
578;DHT22;275;48.492;9.214;2023-09-19T02:59:20;20.20;43.00
578;DHT22;275;48.492;9.214;2023-09-19T03:01:47;20.10;43.70
578;DHT22;275;48.492;9.214;2023-09-19T03:04:14;20.10;43.70
578;DHT22;275;48.492;9.214;2023-09-19T03:06:44;19.90;44.40
578;DHT22;275;48.492;9.214;2023-09-19T03:09:11;20.30;42.90
578;DHT22;275;48.492;9.214;2023-09-19T03:11:39;20.50;42.30
578;DHT22;275;48.492;9.214;2023-09-19T03:14:08;20.30;42.80
578;DHT22;275;48.492;9.214;2023-09-19T03:16:35;20.40;41.90
578;DHT22;275;48.492;9.214;2023-09-19T03:19:03;20.60;41.50
578;DHT22;275;48.492;9.214;2023-09-19T03:21:30;20.60;41.60
578;DHT22;275;48.492;9.214;2023-09-19T03:23:57;20.90;40.70
578;DHT22;275;48.492;9.214;2023-09-19T03:26:24;21.10;40.10
578;DHT22;275;48.492;9.214;2023-09-19T03:28:53;21.00;40.50
578;DHT22;275;48.492;9.214;2023-09-19T03:31:20;20.90;41.40
578;DHT22;275;48.492;9.214;2023-09-19T03:33:47;20.70;42.50
578;DHT22;275;48.492;9.214;2023-09-19T03:36:13;21.00;41.30
578;DHT22;275;48.492;9.214;2023-09-19T03:38:40;21.20;40.50
578;DHT22;275;48.492;9.214;2023-09-19T03:41:07;21.30;40.10
578;DHT22;275;48.492;9.214;2023-09-19T03:43:34;21.30;39.90
578;DHT22;275;48.492;9.214;2023-09-19T03:46:03;21.30;40.10
578;DHT22;275;48.492;9.214;2023-09-19T03:48:30;21.40;39.60
578;DHT22;275;48.492;9.214;2023-09-19T03:50:57;21.40;39.60
578;DHT22;275;48.492;9.214;2023-09-19T03:53:24;21.10;40.10
578;DHT22;275;48.492;9.214;2023-09-19T03:55:51;21.20;40.60
578;DHT22;275;48.492;9.214;2023-09-19T03:58:18;21.20;41.10
578;DHT22;275;48.492;9.214;2023-09-19T04:00:46;21.20;41.70
578;DHT22;275;48.492;9.214;2023-09-19T04:03:14;21.30;41.60
578;DHT22;275;48.492;9.214;2023-09-19T04:05:46;21.10;41.90
578;DHT22;275;48.492;9.214;2023-09-19T04:08:13;21.10;42.80
578;DHT22;275;48.492;9.214;2023-09-19T04:10:42;21.00;42.70
578;DHT22;275;48.492;9.214;2023-09-19T04:13:09;20.70;43.80
578;DHT22;275;48.492;9.214;2023-09-19T04:15:36;20.70;43.80
578;DHT22;275;48.492;9.214;2023-09-19T04:18:03;20.60;44.40
578;DHT22;275;48.492;9.214;2023-09-19T04:20:31;20.40;45.10
578;DHT22;275;48.492;9.214;2023-09-19T04:22:58;20.40;45.10
578;DHT22;275;48.492;9.214;2023-09-19T04:25:26;20.40;45.20
578;DHT22;275;48.492;9.214;2023-09-19T04:27:53;20.30;45.70
578;DHT22;275;48.492;9.214;2023-09-19T04:30:20;20.20;46.00
578;DHT22;275;48.492;9.214;2023-09-19T04:32:46;20.30;45.90
578;DHT22;275;48.492;9.214;2023-09-19T04:35:16;20.20;45.80
578;DHT22;275;48.492;9.214;2023-09-19T04:37:44;20.60;44.70
578;DHT22;275;48.492;9.214;2023-09-19T04:40:12;20.40;45.00
578;DHT22;275;48.492;9.214;2023-09-19T04:42:40;20.30;45.10
578;DHT22;275;48.492;9.214;2023-09-19T04:45:08;20.00;45.60
578;DHT22;275;48.492;9.214;2023-09-19T04:47:35;20.00;46.30
578;DHT22;275;48.492;9.214;2023-09-19T04:50:06;20.00;45.00
578;DHT22;275;48.492;9.214;2023-09-19T04:52:38;20.00;45.20
578;DHT22;275;48.492;9.214;2023-09-19T04:55:08;19.80;45.30
578;DHT22;275;48.492;9.214;2023-09-19T04:57:35;19.50;46.90
578;DHT22;275;48.492;9.214;2023-09-19T05:00:02;19.30;48.00
578;DHT22;275;48.492;9.214;2023-09-19T05:02:32;19.30;48.80
578;DHT22;275;48.492;9.214;2023-09-19T05:05:00;19.70;47.50
578;DHT22;275;48.492;9.214;2023-09-19T05:07:27;19.70;47.90
578;DHT22;275;48.492;9.214;2023-09-19T05:09:53;19.40;47.10
578;DHT22;275;48.492;9.214;2023-09-19T05:12:22;19.10;48.80
578;DHT22;275;48.492;9.214;2023-09-19T05:14:49;19.10;48.00
578;DHT22;275;48.492;9.214;2023-09-19T05:17:15;19.20;48.30
578;DHT22;275;48.492;9.214;2023-09-19T05:19:43;19.80;46.60
578;DHT22;275;48.492;9.214;2023-09-19T05:22:11;19.90;45.30
578;DHT22;275;48.492;9.214;2023-09-19T05:24:38;19.70;45.00
578;DHT22;275;48.492;9.214;2023-09-19T05:27:05;19.50;45.40
578;DHT22;275;48.492;9.214;2023-09-19T05:29:34;18.90;47.70
578;DHT22;275;48.492;9.214;2023-09-19T05:32:01;18.90;47.90
578;DHT22;275;48.492;9.214;2023-09-19T05:34:29;19.10;46.10
578;DHT22;275;48.492;9.214;2023-09-19T05:36:56;19.00;47.20
578;DHT22;275;48.492;9.214;2023-09-19T05:39:23;18.90;46.70
578;DHT22;275;48.492;9.214;2023-09-19T05:41:49;19.10;46.90
578;DHT22;275;48.492;9.214;2023-09-19T05:44:16;19.10;46.40
578;DHT22;275;48.492;9.214;2023-09-19T05:46:44;19.00;46.60
578;DHT22;275;48.492;9.214;2023-09-19T05:49:13;19.30;45.90
578;DHT22;275;48.492;9.214;2023-09-19T05:51:41;19.60;45.30
578;DHT22;275;48.492;9.214;2023-09-19T05:54:08;19.70;44.10
578;DHT22;275;48.492;9.214;2023-09-19T05:56:36;19.50;44.80
578;DHT22;275;48.492;9.214;2023-09-19T05:59:03;19.40;45.40
578;DHT22;275;48.492;9.214;2023-09-19T06:01:30;19.80;43.80
578;DHT22;275;48.492;9.214;2023-09-19T06:03:59;19.90;43.90
578;DHT22;275;48.492;9.214;2023-09-19T06:06:26;20.20;43.00
578;DHT22;275;48.492;9.214;2023-09-19T06:08:53;20.10;43.60
578;DHT22;275;48.492;9.214;2023-09-19T06:11:20;20.30;42.60
578;DHT22;275;48.492;9.214;2023-09-19T06:13:47;20.20;43.10
578;DHT22;275;48.492;9.214;2023-09-19T06:16:13;20.00;44.60
578;DHT22;275;48.492;9.214;2023-09-19T06:18:40;19.40;47.30
578;DHT22;275;48.492;9.214;2023-09-19T06:21:08;18.70;52.00
578;DHT22;275;48.492;9.214;2023-09-19T06:23:35;18.00;55.90
578;DHT22;275;48.492;9.214;2023-09-19T06:26:02;18.40;54.20
578;DHT22;275;48.492;9.214;2023-09-19T06:28:32;18.70;52.40
578;DHT22;275;48.492;9.214;2023-09-19T06:30:59;19.10;51.60
578;DHT22;275;48.492;9.214;2023-09-19T06:33:26;19.40;50.00
578;DHT22;275;48.492;9.214;2023-09-19T06:35:52;19.40;50.00
578;DHT22;275;48.492;9.214;2023-09-19T06:38:26;19.20;49.70
578;DHT22;275;48.492;9.214;2023-09-19T06:40:53;19.10;50.80
578;DHT22;275;48.492;9.214;2023-09-19T06:43:21;18.80;52.50
578;DHT22;275;48.492;9.214;2023-09-19T06:45:47;19.30;51.50
578;DHT22;275;48.492;9.214;2023-09-19T06:48:17;19.40;50.30
578;DHT22;275;48.492;9.214;2023-09-19T06:50:44;19.60;48.90
578;DHT22;275;48.492;9.214;2023-09-19T06:53:10;19.60;49.40
578;DHT22;275;48.492;9.214;2023-09-19T06:55:38;19.70;48.70
578;DHT22;275;48.492;9.214;2023-09-19T06:58:05;19.20;50.60
578;DHT22;275;48.492;9.214;2023-09-19T07:00:33;18.60;52.20
578;DHT22;275;48.492;9.214;2023-09-19T07:03:03;18.20;55.40
578;DHT22;275;48.492;9.214;2023-09-19T07:05:34;18.70;53.90
578;DHT22;275;48.492;9.214;2023-09-19T07:08:03;18.50;53.70
578;DHT22;275;48.492;9.214;2023-09-19T07:10:32;18.40;54.00
578;DHT22;275;48.492;9.214;2023-09-19T07:13:01;18.50;53.60
578;DHT22;275;48.492;9.214;2023-09-19T07:15:30;18.60;54.20
578;DHT22;275;48.492;9.214;2023-09-19T07:17:59;18.40;54.00
578;DHT22;275;48.492;9.214;2023-09-19T07:20:26;18.80;53.20
578;DHT22;275;48.492;9.214;2023-09-19T07:22:57;19.10;50.60
578;DHT22;275;48.492;9.214;2023-09-19T07:25:26;19.10;52.30
578;DHT22;275;48.492;9.214;2023-09-19T07:27:55;19.60;49.30
578;DHT22;275;48.492;9.214;2023-09-19T07:30:23;19.80;49.00
578;DHT22;275;48.492;9.214;2023-09-19T07:32:50;19.80;48.30
578;DHT22;275;48.492;9.214;2023-09-19T07:35:18;20.10;47.90
578;DHT22;275;48.492;9.214;2023-09-19T07:37:45;20.70;45.60
578;DHT22;275;48.492;9.214;2023-09-19T07:40:14;21.00;44.30
578;DHT22;275;48.492;9.214;2023-09-19T07:42:41;21.00;44.40
578;DHT22;275;48.492;9.214;2023-09-19T07:45:10;21.40;42.60
578;DHT22;275;48.492;9.214;2023-09-19T07:47:44;20.40;45.10
578;DHT22;275;48.492;9.214;2023-09-19T07:50:10;20.00;46.80
578;DHT22;275;48.492;9.214;2023-09-19T07:52:37;20.00;46.30
578;DHT22;275;48.492;9.214;2023-09-19T07:55:05;19.70;46.50
578;DHT22;275;48.492;9.214;2023-09-19T07:57:34;20.00;46.40
578;DHT22;275;48.492;9.214;2023-09-19T08:00:03;20.00;46.90
578;DHT22;275;48.492;9.214;2023-09-19T08:02:34;20.30;44.50
578;DHT22;275;48.492;9.214;2023-09-19T08:05:05;20.40;43.50
578;DHT22;275;48.492;9.214;2023-09-19T08:07:35;20.00;45.80
578;DHT22;275;48.492;9.214;2023-09-19T08:10:02;20.40;43.50
578;DHT22;275;48.492;9.214;2023-09-19T08:12:29;20.40;43.00
578;DHT22;275;48.492;9.214;2023-09-19T08:14:58;20.30;44.40
578;DHT22;275;48.492;9.214;2023-09-19T08:17:24;20.40;41.10
578;DHT22;275;48.492;9.214;2023-09-19T08:19:51;20.20;42.10
578;DHT22;275;48.492;9.214;2023-09-19T08:22:20;20.50;41.10
578;DHT22;275;48.492;9.214;2023-09-19T08:24:47;20.30;41.10
578;DHT22;275;48.492;9.214;2023-09-19T08:27:14;20.30;40.80
578;DHT22;275;48.492;9.214;2023-09-19T08:29:43;20.60;40.20
578;DHT22;275;48.492;9.214;2023-09-19T08:32:11;20.40;39.50
578;DHT22;275;48.492;9.214;2023-09-19T08:34:38;20.30;41.40
578;DHT22;275;48.492;9.214;2023-09-19T08:37:05;20.40;39.40
578;DHT22;275;48.492;9.214;2023-09-19T08:39:34;20.00;40.80
578;DHT22;275;48.492;9.214;2023-09-19T08:42:03;19.80;39.60
578;DHT22;275;48.492;9.214;2023-09-19T08:44:30;19.50;40.90
578;DHT22;275;48.492;9.214;2023-09-19T08:47:04;19.80;40.60
578;DHT22;275;48.492;9.214;2023-09-19T08:49:38;19.70;39.30
578;DHT22;275;48.492;9.214;2023-09-19T08:52:13;19.90;38.00
578;DHT22;275;48.492;9.214;2023-09-19T08:54:43;20.40;37.70
578;DHT22;275;48.492;9.214;2023-09-19T08:57:11;20.50;37.70
578;DHT22;275;48.492;9.214;2023-09-19T08:59:47;23.30;31.00
578;DHT22;275;48.492;9.214;2023-09-19T09:02:16;24.80;28.30
578;DHT22;275;48.492;9.214;2023-09-19T09:04:45;25.70;27.50
578;DHT22;275;48.492;9.214;2023-09-19T09:07:13;26.10;26.40
578;DHT22;275;48.492;9.214;2023-09-19T09:09:43;27.70;24.80
578;DHT22;275;48.492;9.214;2023-09-19T09:12:12;28.40;23.20
578;DHT22;275;48.492;9.214;2023-09-19T09:14:39;28.80;21.90
578;DHT22;275;48.492;9.214;2023-09-19T09:17:07;28.00;22.90
578;DHT22;275;48.492;9.214;2023-09-19T09:19:34;25.90;25.10
578;DHT22;275;48.492;9.214;2023-09-19T09:22:08;24.20;26.80
578;DHT22;275;48.492;9.214;2023-09-19T09:24:35;23.90;28.40
578;DHT22;275;48.492;9.214;2023-09-19T09:27:06;24.20;27.90
578;DHT22;275;48.492;9.214;2023-09-19T09:29:43;24.20;27.80
578;DHT22;275;48.492;9.214;2023-09-19T09:32:20;26.30;25.40
578;DHT22;275;48.492;9.214;2023-09-19T09:34:49;26.40;24.70
578;DHT22;275;48.492;9.214;2023-09-19T09:37:17;26.00;25.00
578;DHT22;275;48.492;9.214;2023-09-19T09:39:49;26.30;25.10
578;DHT22;275;48.492;9.214;2023-09-19T09:42:29;25.90;25.80
578;DHT22;275;48.492;9.214;2023-09-19T09:45:12;25.50;26.60
578;DHT22;275;48.492;9.214;2023-09-19T09:47:44;28.70;22.90
578;DHT22;275;48.492;9.214;2023-09-19T09:50:27;30.50;19.70
578;DHT22;275;48.492;9.214;2023-09-19T09:53:25;29.40;20.20
578;DHT22;275;48.492;9.214;2023-09-19T09:56:01;28.00;21.90
578;DHT22;275;48.492;9.214;2023-09-19T09:58:32;29.40;18.50
578;DHT22;275;48.492;9.214;2023-09-19T10:01:01;28.90;18.90
578;DHT22;275;48.492;9.214;2023-09-19T10:03:35;27.50;19.90
578;DHT22;275;48.492;9.214;2023-09-19T10:06:06;28.40;19.00
578;DHT22;275;48.492;9.214;2023-09-19T10:09:00;29.80;17.60
578;DHT22;275;48.492;9.214;2023-09-19T10:11:41;28.90;18.10
578;DHT22;275;48.492;9.214;2023-09-19T10:14:11;28.80;17.80
578;DHT22;275;48.492;9.214;2023-09-19T10:16:41;27.10;21.10
578;DHT22;275;48.492;9.214;2023-09-19T10:19:15;28.60;19.20
578;DHT22;275;48.492;9.214;2023-09-19T10:21:42;30.70;16.50
578;DHT22;275;48.492;9.214;2023-09-19T10:24:11;30.70;15.50
578;DHT22;275;48.492;9.214;2023-09-19T10:26:42;29.80;16.80
578;DHT22;275;48.492;9.214;2023-09-19T10:29:13;31.40;16.20
578;DHT22;275;48.492;9.214;2023-09-19T10:31:42;33.20;13.50
578;DHT22;275;48.492;9.214;2023-09-19T10:34:14;32.10;14.00
578;DHT22;275;48.492;9.214;2023-09-19T10:36:45;31.50;13.80
578;DHT22;275;48.492;9.214;2023-09-19T10:39:15;29.90;15.40
578;DHT22;275;48.492;9.214;2023-09-19T10:41:50;29.90;15.00
578;DHT22;275;48.492;9.214;2023-09-19T10:44:22;30.60;15.20
578;DHT22;275;48.492;9.214;2023-09-19T10:46:51;30.80;13.80
578;DHT22;275;48.492;9.214;2023-09-19T10:49:19;30.20;15.60
578;DHT22;275;48.492;9.214;2023-09-19T10:51:47;28.90;16.40
578;DHT22;275;48.492;9.214;2023-09-19T10:54:18;25.50;21.00
578;DHT22;275;48.492;9.214;2023-09-19T10:56:48;26.90;19.60
578;DHT22;275;48.492;9.214;2023-09-19T10:59:17;25.60;20.80
578;DHT22;275;48.492;9.214;2023-09-19T11:01:46;23.50;23.60
578;DHT22;275;48.492;9.214;2023-09-19T11:04:24;23.50;24.00
578;DHT22;275;48.492;9.214;2023-09-19T11:07:02;23.10;25.50
578;DHT22;275;48.492;9.214;2023-09-19T11:09:49;23.00;25.30
578;DHT22;275;48.492;9.214;2023-09-19T11:12:51;23.20;25.60
578;DHT22;275;48.492;9.214;2023-09-19T11:18:53;22.00;26.10
578;DHT22;275;48.492;9.214;2023-09-19T11:21:50;22.30;25.50
578;DHT22;275;48.492;9.214;2023-09-19T11:24:32;22.50;25.00
578;DHT22;275;48.492;9.214;2023-09-19T11:27:13;22.20;25.10
578;DHT22;275;48.492;9.214;2023-09-19T11:29:42;22.30;25.50
578;DHT22;275;48.492;9.214;2023-09-19T11:32:10;21.90;25.60
578;DHT22;275;48.492;9.214;2023-09-19T11:34:43;22.30;25.40
578;DHT22;275;48.492;9.214;2023-09-19T11:40:25;22.80;24.30
578;DHT22;275;48.492;9.214;2023-09-19T11:42:53;23.10;24.10
578;DHT22;275;48.492;9.214;2023-09-19T11:48:27;22.30;24.40
578;DHT22;275;48.492;9.214;2023-09-19T11:50:56;22.40;24.20
578;DHT22;275;48.492;9.214;2023-09-19T11:53:31;22.60;24.50
578;DHT22;275;48.492;9.214;2023-09-19T11:56:02;22.20;25.00
578;DHT22;275;48.492;9.214;2023-09-19T11:58:32;22.30;25.20
578;DHT22;275;48.492;9.214;2023-09-19T12:01:00;22.40;24.50
578;DHT22;275;48.492;9.214;2023-09-19T12:03:34;22.40;25.00
578;DHT22;275;48.492;9.214;2023-09-19T12:06:12;22.70;24.40
578;DHT22;275;48.492;9.214;2023-09-19T12:08:41;23.70;23.50
578;DHT22;275;48.492;9.214;2023-09-19T12:11:12;24.10;22.50
578;DHT22;275;48.492;9.214;2023-09-19T12:13:42;26.60;19.20
578;DHT22;275;48.492;9.214;2023-09-19T12:16:12;26.30;19.00
578;DHT22;275;48.492;9.214;2023-09-19T12:18:40;28.10;17.70
578;DHT22;275;48.492;9.214;2023-09-19T12:21:08;29.40;15.20
578;DHT22;275;48.492;9.214;2023-09-19T12:24:07;27.80;17.10
578;DHT22;275;48.492;9.214;2023-09-19T12:26:42;27.00;18.70
578;DHT22;275;48.492;9.214;2023-09-19T12:29:12;27.60;17.60
578;DHT22;275;48.492;9.214;2023-09-19T12:31:51;27.60;17.30
578;DHT22;275;48.492;9.214;2023-09-19T12:34:20;27.80;17.40
578;DHT22;275;48.492;9.214;2023-09-19T12:36:48;28.90;15.80
578;DHT22;275;48.492;9.214;2023-09-19T12:39:25;29.30;15.80
578;DHT22;275;48.492;9.214;2023-09-19T12:41:53;30.20;15.30
578;DHT22;275;48.492;9.214;2023-09-19T12:44:20;32.70;12.30
578;DHT22;275;48.492;9.214;2023-09-19T12:46:50;34.10;10.90
578;DHT22;275;48.492;9.214;2023-09-19T12:49:20;33.30;10.90
578;DHT22;275;48.492;9.214;2023-09-19T12:51:48;32.80;11.10
578;DHT22;275;48.492;9.214;2023-09-19T12:54:16;31.10;12.50
578;DHT22;275;48.492;9.214;2023-09-19T12:56:45;31.50;12.20
578;DHT22;275;48.492;9.214;2023-09-19T12:59:13;33.40;10.60
578;DHT22;275;48.492;9.214;2023-09-19T13:01:41;33.30;10.10
578;DHT22;275;48.492;9.214;2023-09-19T13:04:13;31.90;11.10
578;DHT22;275;48.492;9.214;2023-09-19T13:06:43;32.20;10.50
578;DHT22;275;48.492;9.214;2023-09-19T13:09:11;31.40;11.70
578;DHT22;275;48.492;9.214;2023-09-19T13:11:40;31.00;11.30
578;DHT22;275;48.492;9.214;2023-09-19T13:14:19;32.70;9.50
578;DHT22;275;48.492;9.214;2023-09-19T13:17:00;33.20;7.90
578;DHT22;275;48.492;9.214;2023-09-19T13:19:42;32.80;8.90
578;DHT22;275;48.492;9.214;2023-09-19T13:22:36;31.90;9.30
578;DHT22;275;48.492;9.214;2023-09-19T13:25:06;31.50;10.30
578;DHT22;275;48.492;9.214;2023-09-19T13:27:33;30.20;11.20
578;DHT22;275;48.492;9.214;2023-09-19T13:30:01;30.10;11.40
578;DHT22;275;48.492;9.214;2023-09-19T13:32:32;27.80;14.30
578;DHT22;275;48.492;9.214;2023-09-19T13:34:59;27.00;15.00
578;DHT22;275;48.492;9.214;2023-09-19T13:37:29;26.50;15.30
578;DHT22;275;48.492;9.214;2023-09-19T13:39:56;25.30;17.10
578;DHT22;275;48.492;9.214;2023-09-19T13:42:24;26.10;16.30
578;DHT22;275;48.492;9.214;2023-09-19T13:44:51;26.30;16.40
578;DHT22;275;48.492;9.214;2023-09-19T13:47:20;27.60;15.20
578;DHT22;275;48.492;9.214;2023-09-19T13:49:50;27.80;14.90
578;DHT22;275;48.492;9.214;2023-09-19T13:52:18;26.80;15.70
578;DHT22;275;48.492;9.214;2023-09-19T13:54:45;26.70;16.40
578;DHT22;275;48.492;9.214;2023-09-19T13:57:11;27.00;16.10
578;DHT22;275;48.492;9.214;2023-09-19T13:59:39;26.60;17.00
578;DHT22;275;48.492;9.214;2023-09-19T14:02:05;27.00;16.60
578;DHT22;275;48.492;9.214;2023-09-19T14:04:34;27.20;16.20
578;DHT22;275;48.492;9.214;2023-09-19T14:07:01;26.80;16.80
578;DHT22;275;48.492;9.214;2023-09-19T14:09:29;26.30;18.60
578;DHT22;275;48.492;9.214;2023-09-19T14:11:56;25.90;19.30
578;DHT22;275;48.492;9.214;2023-09-19T14:14:23;26.00;19.30
578;DHT22;275;48.492;9.214;2023-09-19T14:16:50;25.70;19.80
578;DHT22;275;48.492;9.214;2023-09-19T14:19:17;25.40;20.00
578;DHT22;275;48.492;9.214;2023-09-19T14:21:46;25.40;20.40
578;DHT22;275;48.492;9.214;2023-09-19T14:24:16;25.10;20.60
578;DHT22;275;48.492;9.214;2023-09-19T14:26:43;24.60;20.80
578;DHT22;275;48.492;9.214;2023-09-19T14:29:10;24.40;21.10
578;DHT22;275;48.492;9.214;2023-09-19T14:31:37;24.70;20.90
578;DHT22;275;48.492;9.214;2023-09-19T14:34:06;25.20;20.30
578;DHT22;275;48.492;9.214;2023-09-19T14:36:35;25.50;20.10
578;DHT22;275;48.492;9.214;2023-09-19T14:39:03;24.80;20.20
578;DHT22;275;48.492;9.214;2023-09-19T14:41:30;24.00;21.30
578;DHT22;275;48.492;9.214;2023-09-19T14:43:57;24.30;21.00
578;DHT22;275;48.492;9.214;2023-09-19T14:46:24;24.80;19.90
578;DHT22;275;48.492;9.214;2023-09-19T14:48:51;25.00;19.70
578;DHT22;275;48.492;9.214;2023-09-19T14:51:19;24.70;19.70
578;DHT22;275;48.492;9.214;2023-09-19T14:53:46;24.50;20.10
578;DHT22;275;48.492;9.214;2023-09-19T14:56:14;24.60;20.00
578;DHT22;275;48.492;9.214;2023-09-19T14:58:44;24.70;20.10
578;DHT22;275;48.492;9.214;2023-09-19T15:01:13;24.00;20.50
578;DHT22;275;48.492;9.214;2023-09-19T15:03:41;24.30;20.20
578;DHT22;275;48.492;9.214;2023-09-19T15:06:10;25.00;19.10
578;DHT22;275;48.492;9.214;2023-09-19T15:08:40;24.20;19.40
578;DHT22;275;48.492;9.214;2023-09-19T15:11:11;24.40;19.40
578;DHT22;275;48.492;9.214;2023-09-19T15:13:40;25.00;18.60
578;DHT22;275;48.492;9.214;2023-09-19T15:16:08;25.00;18.50
578;DHT22;275;48.492;9.214;2023-09-19T15:18:36;24.30;19.50
578;DHT22;275;48.492;9.214;2023-09-19T15:21:03;24.10;19.80
578;DHT22;275;48.492;9.214;2023-09-19T15:23:30;24.70;19.70
578;DHT22;275;48.492;9.214;2023-09-19T15:25:58;24.40;19.50
578;DHT22;275;48.492;9.214;2023-09-19T15:28:25;24.60;19.60
578;DHT22;275;48.492;9.214;2023-09-19T15:30:59;24.70;18.90
578;DHT22;275;48.492;9.214;2023-09-19T15:33:26;24.90;19.00
578;DHT22;275;48.492;9.214;2023-09-19T15:36:01;25.30;18.30
578;DHT22;275;48.492;9.214;2023-09-19T15:38:29;25.40;18.60
578;DHT22;275;48.492;9.214;2023-09-19T15:40:57;25.40;18.20
578;DHT22;275;48.492;9.214;2023-09-19T15:43:24;24.80;19.10
578;DHT22;275;48.492;9.214;2023-09-19T15:45:51;24.20;20.00
578;DHT22;275;48.492;9.214;2023-09-19T15:48:19;24.20;20.10
578;DHT22;275;48.492;9.214;2023-09-19T15:50:47;24.20;19.80
578;DHT22;275;48.492;9.214;2023-09-19T15:53:14;24.30;19.30
578;DHT22;275;48.492;9.214;2023-09-19T15:55:42;24.70;19.00
578;DHT22;275;48.492;9.214;2023-09-19T15:58:10;25.20;18.30
578;DHT22;275;48.492;9.214;2023-09-19T16:00:39;25.10;18.10
578;DHT22;275;48.492;9.214;2023-09-19T16:03:06;25.10;18.20
578;DHT22;275;48.492;9.214;2023-09-19T16:05:36;25.10;18.30
578;DHT22;275;48.492;9.214;2023-09-19T16:08:06;24.60;19.20
578;DHT22;275;48.492;9.214;2023-09-19T16:10:35;24.70;18.60
578;DHT22;275;48.492;9.214;2023-09-19T16:13:03;24.80;18.60
578;DHT22;275;48.492;9.214;2023-09-19T16:15:30;25.20;17.90
578;DHT22;275;48.492;9.214;2023-09-19T16:17:58;24.60;18.60
578;DHT22;275;48.492;9.214;2023-09-19T16:20:26;24.70;18.40
578;DHT22;275;48.492;9.214;2023-09-19T16:22:55;24.60;18.40
578;DHT22;275;48.492;9.214;2023-09-19T16:25:21;24.30;19.00
578;DHT22;275;48.492;9.214;2023-09-19T16:27:49;24.80;18.40
578;DHT22;275;48.492;9.214;2023-09-19T16:30:16;25.10;17.90
578;DHT22;275;48.492;9.214;2023-09-19T16:32:44;25.10;17.90
578;DHT22;275;48.492;9.214;2023-09-19T16:35:10;25.20;17.90
578;DHT22;275;48.492;9.214;2023-09-19T16:37:38;25.10;18.20
578;DHT22;275;48.492;9.214;2023-09-19T16:40:07;24.60;18.40
578;DHT22;275;48.492;9.214;2023-09-19T16:42:35;24.50;18.60
578;DHT22;275;48.492;9.214;2023-09-19T16:45:03;24.40;18.80
578;DHT22;275;48.492;9.214;2023-09-19T16:47:30;24.50;18.90
578;DHT22;275;48.492;9.214;2023-09-19T16:49:57;24.30;18.90
578;DHT22;275;48.492;9.214;2023-09-19T16:52:24;24.20;19.10
578;DHT22;275;48.492;9.214;2023-09-19T16:54:51;24.10;19.40
578;DHT22;275;48.492;9.214;2023-09-19T16:57:19;23.60;20.10
578;DHT22;275;48.492;9.214;2023-09-19T16:59:47;23.50;20.30